Time;durP1;ratioP1;P1;durP2;ratioP2;P2;SDS_P1;SDS_P2;PMS_P1;PMS_P2;Temp;Humidity;BMP_temperature;BMP_pressure;BME280_temperature;BME280_humidity;BME280_pressure;Samples;Min_cycle;Max_cycle;Signal;HPM_P1;HPM_P2
2022/11/10 00:01:47;;;;;;;;;14.67;12.00;;;;;;;;5041929;28;46137;-73
2022/11/10 00:04:12;;;;;;;;;20.00;17.00;;;;;;;;5029437;28;45491;-70
2022/11/10 00:06:39;;;;;;;;;22.00;21.00;;;;;;;;5046112;28;45940;-70
2022/11/10 00:09:04;;;;;;;;;38.00;29.67;;;;;;;;5046378;28;45844;-70
2022/11/10 00:11:30;;;;;;;;;20.33;16.00;;;;;;;;5043390;28;46759;-69
2022/11/10 00:19:23;;;;;;;;;16.67;15.67;;;;;;;;5045504;28;45763;-69
2022/11/10 00:21:48;;;;;;;;;14.00;11.67;;;;;;;;5048441;28;46603;-70
2022/11/10 00:24:13;;;;;;;;;16.00;14.33;;;;;;;;5036012;28;45758;-77
2022/11/10 00:26:38;;;;;;;;;12.33;11.00;;;;;;;;5038817;28;45756;-78
2022/11/10 00:29:04;;;;;;;;;14.67;13.67;;;;;;;;5048517;28;46460;-78
2022/11/10 00:31:29;;;;;;;;;17.33;16.67;;;;;;;;5053129;28;46287;-74
2022/11/10 00:33:55;;;;;;;;;10.67;9.00;;;;;;;;5052316;28;45705;-76
2022/11/10 00:36:20;;;;;;;;;13.33;13.33;;;;;;;;5052742;28;45432;-76
2022/11/10 00:38:45;;;;;;;;;14.00;9.33;;;;;;;;5052006;28;45381;-76
2022/11/10 00:41:10;;;;;;;;;8.33;8.33;;;;;;;;5052551;28;46119;-78
2022/11/10 00:43:36;;;;;;;;;19.00;16.33;;;;;;;;5045625;28;45490;-79
2022/11/10 00:46:01;;;;;;;;;24.33;17.67;;;;;;;;5043723;28;45449;-78
2022/11/10 00:48:26;;;;;;;;;16.33;12.67;;;;;;;;5038561;28;45464;-77
2022/11/10 00:50:52;;;;;;;;;15.33;13.00;;;;;;;;5036220;28;45860;-77
2022/11/10 00:53:17;;;;;;;;;13.67;13.00;;;;;;;;5042065;28;45423;-76
2022/11/10 00:55:42;;;;;;;;;10.00;10.00;;;;;;;;5034469;28;45728;-76
2022/11/10 00:58:08;;;;;;;;;17.00;12.67;;;;;;;;5035567;28;45495;-77
2022/11/10 01:00:33;;;;;;;;;14.00;13.00;;;;;;;;5033378;28;46208;-77
2022/11/10 01:03:01;;;;;;;;;12.00;8.67;;;;;;;;5035162;28;45469;-75
2022/11/10 01:05:26;;;;;;;;;16.33;12.67;;;;;;;;5034909;28;45792;-75
2022/11/10 01:07:51;;;;;;;;;18.00;12.33;;;;;;;;5035291;28;45628;-76
2022/11/10 01:10:17;;;;;;;;;14.00;14.00;;;;;;;;5033962;28;45732;-76
2022/11/10 01:12:42;;;;;;;;;15.67;14.33;;;;;;;;5036798;28;45270;-76
2022/11/10 01:15:08;;;;;;;;;20.67;17.33;;;;;;;;5039256;28;45961;-76
2022/11/10 01:17:33;;;;;;;;;20.33;16.67;;;;;;;;5028776;28;45781;-77
2022/11/10 01:19:58;;;;;;;;;21.00;18.00;;;;;;;;5046316;28;46617;-76
2022/11/10 01:22:24;;;;;;;;;15.00;15.00;;;;;;;;5040481;28;45367;-75
2022/11/10 01:24:49;;;;;;;;;19.00;15.33;;;;;;;;5041804;28;45361;-75
2022/11/10 01:27:14;;;;;;;;;18.00;15.67;;;;;;;;5038208;28;45535;-75
2022/11/10 01:29:39;;;;;;;;;15.00;15.00;;;;;;;;5046427;28;45382;-75
2022/11/10 01:32:07;;;;;;;;;20.67;18.33;;;;;;;;5048737;28;45759;-75
2022/11/10 01:34:32;;;;;;;;;17.33;13.00;;;;;;;;5047677;28;45860;-75
2022/11/10 01:36:57;;;;;;;;;11.00;10.67;;;;;;;;5051084;28;45506;-75
2022/11/10 01:39:22;;;;;;;;;14.67;14.00;;;;;;;;5037126;28;45466;-71
2022/11/10 01:41:48;;;;;;;;;15.33;13.00;;;;;;;;5036529;28;45325;-70
2022/11/10 01:44:18;;;;;;;;;12.67;12.67;;;;;;;;5044098;28;45728;-69
2022/11/10 01:46:43;;;;;;;;;14.00;13.33;;;;;;;;5046918;28;45675;-70
2022/11/10 01:49:08;;;;;;;;;26.00;18.00;;;;;;;;5029578;28;47029;-71
2022/11/10 01:51:38;;;;;;;;;18.33;14.67;;;;;;;;5049508;28;45452;-70
2022/11/10 01:54:06;;;;;;;;;15.00;14.33;;;;;;;;5036593;28;45438;-70
2022/11/10 01:56:35;;;;;;;;;20.00;17.00;;;;;;;;5038032;28;45344;-71
2022/11/10 01:59:02;;;;;;;;;18.00;15.33;;;;;;;;5046279;28;45445;-70
2022/11/10 02:01:27;;;;;;;;;29.00;22.67;;;;;;;;5040083;28;45543;-70
2022/11/10 02:03:55;;;;;;;;;18.33;13.67;;;;;;;;5044982;28;45420;-71
2022/11/10 02:06:22;;;;;;;;;22.67;21.00;;;;;;;;5033454;28;46254;-76
2022/11/10 02:08:49;;;;;;;;;29.00;21.00;;;;;;;;5044486;28;46432;-76
2022/11/10 02:11:14;;;;;;;;;31.33;25.67;;;;;;;;5047538;28;45744;-75
2022/11/10 02:13:39;;;;;;;;;27.67;25.33;;;;;;;;5052226;28;45697;-76
2022/11/10 02:16:05;;;;;;;;;24.33;18.67;;;;;;;;5052496;28;45483;-75
2022/11/10 02:18:30;;;;;;;;;31.33;24.67;;;;;;;;5054127;28;46322;-76
2022/11/10 02:20:55;;;;;;;;;30.00;24.67;;;;;;;;5053792;28;45519;-75
2022/11/10 02:23:30;;;;;;;;;25.67;21.33;;;;;;;;5052034;28;45714;-75
2022/11/10 02:25:56;;;;;;;;;23.67;16.00;;;;;;;;5040632;28;45484;-76
2022/11/10 02:28:21;;;;;;;;;12.67;12.67;;;;;;;;5055247;28;45682;-73
2022/11/10 02:30:46;;;;;;;;;42.33;33.67;;;;;;;;5047297;28;45550;-76
2022/11/10 02:33:12;;;;;;;;;32.67;30.33;;;;;;;;5052638;28;45478;-76
2022/11/10 02:35:37;;;;;;;;;20.67;15.67;;;;;;;;5042910;28;45900;-75
2022/11/10 02:38:02;;;;;;;;;17.67;17.33;;;;;;;;5037765;28;46202;-71
2022/11/10 02:40:28;;;;;;;;;23.67;17.00;;;;;;;;5043044;28;45645;-71
2022/11/10 02:42:53;;;;;;;;;18.67;17.33;;;;;;;;5055741;28;45405;-71
2022/11/10 02:45:18;;;;;;;;;12.33;11.00;;;;;;;;5018644;28;46860;-71
2022/11/10 02:47:43;;;;;;;;;13.00;10.33;;;;;;;;5036319;28;45794;-70
2022/11/10 02:50:09;;;;;;;;;24.33;21.33;;;;;;;;5059317;28;45306;-70
2022/11/10 02:52:34;;;;;;;;;11.33;10.00;;;;;;;;5051008;28;45812;-70
2022/11/10 02:54:59;;;;;;;;;18.00;13.33;;;;;;;;5046876;28;45812;-72
2022/11/10 02:57:24;;;;;;;;;21.33;13.33;;;;;;;;5048357;28;46156;-70
2022/11/10 02:59:50;;;;;;;;;22.00;21.00;;;;;;;;5028305;28;45535;-75
2022/11/10 03:02:15;;;;;;;;;9.67;8.00;;;;;;;;5058902;28;45768;-76
2022/11/10 03:04:40;;;;;;;;;12.00;10.00;;;;;;;;5033589;28;45483;-74
2022/11/10 03:07:06;;;;;;;;;10.00;9.00;;;;;;;;5037634;28;47607;-76
2022/11/10 03:09:31;;;;;;;;;9.00;5.00;;;;;;;;5052010;28;45674;-76
2022/11/10 03:11:56;;;;;;;;;8.33;7.33;;;;;;;;5055274;28;45620;-76
2022/11/10 03:14:21;;;;;;;;;10.33;7.67;;;;;;;;5051088;28;46707;-75
2022/11/10 03:16:47;;;;;;;;;9.67;6.67;;;;;;;;5054306;28;46110;-74
2022/11/10 03:19:12;;;;;;;;;7.33;7.00;;;;;;;;5054581;28;45590;-68
2022/11/10 03:21:37;;;;;;;;;8.33;7.00;;;;;;;;5047941;28;45749;-70
2022/11/10 03:24:02;;;;;;;;;9.67;7.00;;;;;;;;5051550;28;45732;-72
2022/11/10 03:26:28;;;;;;;;;7.67;7.67;;;;;;;;5044434;28;46429;-71
2022/11/10 03:28:53;;;;;;;;;9.33;9.33;;;;;;;;5049627;28;45642;-68
2022/11/10 03:31:18;;;;;;;;;8.33;8.33;;;;;;;;5048036;28;45745;-70
2022/11/10 03:33:43;;;;;;;;;12.00;10.00;;;;;;;;5048620;28;45568;-76
2022/11/10 03:36:09;;;;;;;;;10.67;9.33;;;;;;;;5053427;28;46715;-71
2022/11/10 03:38:34;;;;;;;;;10.33;8.67;;;;;;;;5033495;28;45690;-76
2022/11/10 03:40:59;;;;;;;;;7.00;5.33;;;;;;;;5048792;28;45894;-76
2022/11/10 03:43:24;;;;;;;;;9.67;8.00;;;;;;;;5047380;28;45464;-76
2022/11/10 03:45:49;;;;;;;;;8.00;6.67;;;;;;;;5052613;28;46242;-76
2022/11/10 03:48:15;;;;;;;;;7.00;7.00;;;;;;;;5033397;28;45532;-76
2022/11/10 03:50:40;;;;;;;;;7.00;5.00;;;;;;;;5034679;28;45512;-76
2022/11/10 03:53:06;;;;;;;;;7.67;6.00;;;;;;;;5052122;28;45764;-76
2022/11/10 03:55:32;;;;;;;;;8.00;7.00;;;;;;;;5052842;28;45738;-76
2022/11/10 03:58:01;;;;;;;;;9.67;8.67;;;;;;;;5051988;28;45704;-76
2022/11/10 04:00:28;;;;;;;;;8.33;6.00;;;;;;;;5053434;28;45396;-76
2022/11/10 04:02:53;;;;;;;;;6.00;6.00;;;;;;;;5052412;28;45790;-76
2022/11/10 04:10:48;;;;;;;;;6.33;6.33;;;;;;;;5051584;28;45459;-78
2022/11/10 04:15:57;;;;;;;;;6.67;6.00;;;;;;;;5048635;28;46204;-79
2022/11/10 04:18:25;;;;;;;;;7.00;6.33;;;;;;;;5058212;28;45727;-77
2022/11/10 04:20:58;;;;;;;;;8.67;5.33;;;;;;;;5057836;28;45376;-76
2022/11/10 04:23:27;;;;;;;;;9.00;6.00;;;;;;;;5035101;28;45743;-79
2022/11/10 04:28:41;;;;;;;;;8.00;6.00;;;;;;;;5052812;28;45453;-78
2022/11/10 04:31:07;;;;;;;;;7.33;6.33;;;;;;;;5034998;28;45407;-78
2022/11/10 04:33:32;;;;;;;;;8.33;4.67;;;;;;;;5045979;28;46007;-77
2022/11/10 04:35:58;;;;;;;;;6.00;5.00;;;;;;;;5031200;28;46100;-77
2022/11/10 04:38:23;;;;;;;;;6.00;5.00;;;;;;;;5051805;28;45353;-78
2022/11/10 04:40:48;;;;;;;;;8.33;7.00;;;;;;;;5052793;28;45836;-80
2022/11/10 04:43:13;;;;;;;;;10.67;7.00;;;;;;;;5052797;28;45987;-79
2022/11/10 04:45:39;;;;;;;;;7.00;6.00;;;;;;;;5051242;28;46267;-77
2022/11/10 04:48:04;;;;;;;;;7.00;7.00;;;;;;;;5052286;28;45758;-71
2022/11/10 04:50:30;;;;;;;;;6.00;6.00;;;;;;;;5051961;28;45624;-71
2022/11/10 04:52:55;;;;;;;;;7.33;6.00;;;;;;;;5034319;28;46166;-70
2022/11/10 04:55:20;;;;;;;;;10.00;6.67;;;;;;;;5051823;28;45728;-69
2022/11/10 04:57:46;;;;;;;;;5.67;5.00;;;;;;;;5040847;28;45382;-71
2022/11/10 05:00:11;;;;;;;;;2.00;0.33;;;;;;;;5037554;28;45631;-70
2022/11/10 05:02:36;;;;;;;;;9.00;7.00;;;;;;;;5049564;28;45377;-70
2022/11/10 05:05:02;;;;;;;;;7.67;7.67;;;;;;;;5038469;28;45493;-70
2022/11/10 05:07:27;;;;;;;;;12.00;8.67;;;;;;;;5030991;28;45718;-71
2022/11/10 05:09:53;;;;;;;;;5.67;5.67;;;;;;;;5041274;28;45669;-70
2022/11/10 05:12:18;;;;;;;;;6.67;6.00;;;;;;;;5030763;28;46004;-71
2022/11/10 05:14:43;;;;;;;;;5.00;4.00;;;;;;;;5047542;28;45345;-71
2022/11/10 05:17:08;;;;;;;;;6.00;5.00;;;;;;;;5058397;28;45349;-71
2022/11/10 05:19:33;;;;;;;;;9.33;6.33;;;;;;;;5051592;28;45821;-69
2022/11/10 05:21:59;;;;;;;;;6.67;6.67;;;;;;;;5028673;28;47070;-70
2022/11/10 05:24:24;;;;;;;;;6.00;5.00;;;;;;;;5051755;28;45895;-70
2022/11/10 05:26:49;;;;;;;;;6.67;5.67;;;;;;;;5043571;28;45771;-70
2022/11/10 05:29:14;;;;;;;;;6.00;6.00;;;;;;;;5031840;28;45916;-70
2022/11/10 05:31:42;;;;;;;;;9.33;7.67;;;;;;;;5051333;28;45640;-72
2022/11/10 05:34:07;;;;;;;;;7.67;6.67;;;;;;;;5033415;28;46800;-69
2022/11/10 05:36:32;;;;;;;;;10.00;9.00;;;;;;;;5042939;28;45276;-71
2022/11/10 05:38:58;;;;;;;;;8.00;8.00;;;;;;;;5049659;28;45442;-71
2022/11/10 05:41:23;;;;;;;;;11.33;9.67;;;;;;;;5033830;28;45355;-70
2022/11/10 05:43:48;;;;;;;;;10.33;9.00;;;;;;;;5036462;28;45471;-69
2022/11/10 05:46:14;;;;;;;;;5.67;5.67;;;;;;;;5056740;28;45807;-70
2022/11/10 05:48:40;;;;;;;;;11.00;7.00;;;;;;;;5052832;28;45776;-71
2022/11/10 05:51:05;;;;;;;;;6.00;6.00;;;;;;;;5029668;28;45824;-69
2022/11/10 05:53:30;;;;;;;;;9.67;8.00;;;;;;;;5040201;28;45483;-69
2022/11/10 05:55:55;;;;;;;;;6.00;5.00;;;;;;;;5036589;28;45413;-68
2022/11/10 05:58:21;;;;;;;;;11.33;7.00;;;;;;;;5038536;28;45535;-69
2022/11/10 06:00:46;;;;;;;;;6.67;4.00;;;;;;;;5035707;28;45400;-69
2022/11/10 06:03:12;;;;;;;;;6.00;6.00;;;;;;;;5033650;28;46165;-69
2022/11/10 06:05:38;;;;;;;;;7.67;6.33;;;;;;;;5032546;28;45510;-73
2022/11/10 06:08:04;;;;;;;;;6.00;5.00;;;;;;;;5034336;28;45385;-70
2022/11/10 06:10:30;;;;;;;;;9.00;6.00;;;;;;;;5033188;28;45496;-70
2022/11/10 06:12:55;;;;;;;;;9.33;6.00;;;;;;;;5036478;28;46433;-70
2022/11/10 06:15:21;;;;;;;;;6.00;6.00;;;;;;;;5034009;28;45610;-68
2022/11/10 06:17:46;;;;;;;;;7.00;7.00;;;;;;;;5020468;28;45405;-69
2022/11/10 06:20:13;;;;;;;;;8.00;7.67;;;;;;;;5044507;28;45621;-66
2022/11/10 06:22:39;;;;;;;;;6.67;6.67;;;;;;;;5044127;28;46680;-74
2022/11/10 06:25:04;;;;;;;;;11.33;8.00;;;;;;;;5037491;28;45466;-69
2022/11/10 06:27:29;;;;;;;;;6.33;6.00;;;;;;;;5050726;28;45510;-70
2022/11/10 06:29:55;;;;;;;;;7.67;5.67;;;;;;;;5052091;28;45527;-69
2022/11/10 06:32:20;;;;;;;;;9.00;6.33;;;;;;;;5050461;28;45488;-70
2022/11/10 06:34:45;;;;;;;;;7.67;6.67;;;;;;;;5053292;28;45766;-70
2022/11/10 06:37:10;;;;;;;;;5.67;4.67;;;;;;;;5049787;28;45709;-70
2022/11/10 06:39:36;;;;;;;;;5.67;4.00;;;;;;;;5036849;28;45764;-70
2022/11/10 06:42:01;;;;;;;;;7.33;6.00;;;;;;;;5061628;28;45596;-69
2022/11/10 06:44:26;;;;;;;;;9.00;6.67;;;;;;;;5036712;28;46031;-71
2022/11/10 06:46:51;;;;;;;;;5.00;5.00;;;;;;;;5043020;28;45751;-74
2022/11/10 06:49:17;;;;;;;;;6.33;5.00;;;;;;;;5053707;28;45852;-71
2022/11/10 06:51:42;;;;;;;;;8.00;6.00;;;;;;;;5029845;28;47170;-70
2022/11/10 06:54:08;;;;;;;;;7.00;6.33;;;;;;;;5048644;28;45390;-71
2022/11/10 06:56:33;;;;;;;;;6.33;4.67;;;;;;;;5030788;28;45395;-70
2022/11/10 06:58:59;;;;;;;;;5.00;5.00;;;;;;;;5043892;28;45742;-70
2022/11/10 07:01:25;;;;;;;;;6.00;2.67;;;;;;;;5044696;28;46733;-70
2022/11/10 07:03:51;;;;;;;;;5.33;5.00;;;;;;;;5035666;28;45652;-70
2022/11/10 07:06:16;;;;;;;;;6.67;6.33;;;;;;;;5053958;28;45632;-68
2022/11/10 07:08:42;;;;;;;;;13.67;11.67;;;;;;;;5054455;28;45275;-69
2022/11/10 07:11:07;;;;;;;;;21.33;15.33;;;;;;;;5042448;28;46230;-70
2022/11/10 07:13:32;;;;;;;;;21.33;17.33;;;;;;;;5035717;28;45942;-69
2022/11/10 07:15:58;;;;;;;;;16.33;16.00;;;;;;;;5039546;28;45899;-71
2022/11/10 07:18:23;;;;;;;;;22.00;18.67;;;;;;;;5037142;28;45877;-67
2022/11/10 07:20:48;;;;;;;;;19.33;15.67;;;;;;;;5050190;28;45409;-69
2022/11/10 07:23:13;;;;;;;;;16.67;13.33;;;;;;;;5042006;28;45491;-67
2022/11/10 07:25:39;;;;;;;;;15.00;13.00;;;;;;;;5038274;28;45799;-70
2022/11/10 07:28:05;;;;;;;;;17.33;13.33;;;;;;;;5027106;28;47455;-68
2022/11/10 07:30:32;;;;;;;;;12.00;11.00;;;;;;;;5007576;28;45590;-70
2022/11/10 07:33:04;;;;;;;;;16.67;16.00;;;;;;;;5033307;28;45785;-68
2022/11/10 07:35:30;;;;;;;;;18.33;14.33;;;;;;;;5025383;28;45976;-70
2022/11/10 07:38:06;;;;;;;;;18.00;16.00;;;;;;;;5040975;28;45507;-69
2022/11/10 07:40:31;;;;;;;;;14.67;12.33;;;;;;;;5047052;28;45699;-69
2022/11/10 07:42:57;;;;;;;;;17.00;14.67;;;;;;;;5041718;28;45817;-70
2022/11/10 07:45:22;;;;;;;;;15.00;13.67;;;;;;;;5043866;28;46043;-69
2022/11/10 07:47:49;;;;;;;;;12.00;10.00;;;;;;;;5030582;28;46976;-70
2022/11/10 07:50:14;;;;;;;;;10.00;8.00;;;;;;;;5024563;28;47109;-70
2022/11/10 07:52:39;;;;;;;;;17.33;14.00;;;;;;;;5048715;28;45867;-70
2022/11/10 07:55:05;;;;;;;;;16.33;12.33;;;;;;;;5042501;28;45922;-70
2022/11/10 07:57:31;;;;;;;;;17.67;16.67;;;;;;;;5050839;28;45851;-69
2022/11/10 07:59:56;;;;;;;;;17.00;15.00;;;;;;;;5055018;28;45755;-68
2022/11/10 08:02:22;;;;;;;;;11.33;11.00;;;;;;;;5049386;28;45621;-72
2022/11/10 08:04:47;;;;;;;;;13.67;13.67;;;;;;;;5029110;28;45489;-69
2022/11/10 08:07:12;;;;;;;;;16.00;13.33;;;;;;;;5042807;28;45652;-69
2022/11/10 08:09:37;;;;;;;;;17.33;12.67;;;;;;;;5044775;28;45471;-72
2022/11/10 08:12:03;;;;;;;;;17.00;12.33;;;;;;;;5033575;28;45750;-70
2022/11/10 08:14:28;;;;;;;;;10.67;10.33;;;;;;;;5046496;28;45748;-69
2022/11/10 08:16:53;;;;;;;;;12.67;11.00;;;;;;;;5031928;28;45987;-70
2022/11/10 08:19:18;;;;;;;;;12.00;10.00;;;;;;;;5050812;28;46159;-70
2022/11/10 08:21:44;;;;;;;;;11.00;9.00;;;;;;;;5032411;28;45643;-70
2022/11/10 08:24:09;;;;;;;;;12.67;10.33;;;;;;;;5045890;28;45854;-69
2022/11/10 08:26:34;;;;;;;;;7.33;4.33;;;;;;;;5055061;28;45441;-69
2022/11/10 08:29:00;;;;;;;;;11.00;8.67;;;;;;;;5048040;28;46998;-70
2022/11/10 08:31:25;;;;;;;;;14.33;11.00;;;;;;;;5048926;28;46041;-70
2022/11/10 08:33:50;;;;;;;;;12.33;10.67;;;;;;;;5045576;28;45489;-69
2022/11/10 08:36:16;;;;;;;;;9.33;8.00;;;;;;;;5047940;28;45448;-70
2022/11/10 08:38:41;;;;;;;;;15.00;13.33;;;;;;;;5041272;28;45700;-72
2022/11/10 08:41:06;;;;;;;;;12.00;12.00;;;;;;;;5051664;28;45517;-69
2022/11/10 08:43:31;;;;;;;;;14.33;10.67;;;;;;;;5033362;28;45892;-70
2022/11/10 08:45:57;;;;;;;;;11.33;10.00;;;;;;;;5050536;28;45776;-70
2022/11/10 08:48:22;;;;;;;;;15.00;14.67;;;;;;;;5049895;28;46159;-70
2022/11/10 08:50:48;;;;;;;;;13.33;11.33;;;;;;;;5051905;28;45750;-68
2022/11/10 08:53:15;;;;;;;;;22.33;17.67;;;;;;;;5033232;28;45576;-70
2022/11/10 08:55:41;;;;;;;;;23.67;16.67;;;;;;;;5032733;28;45316;-69
2022/11/10 08:58:07;;;;;;;;;19.33;8.00;;;;;;;;5046923;28;45691;-69
2022/11/10 09:00:33;;;;;;;;;11.67;8.67;;;;;;;;5045094;28;45348;-71
2022/11/10 09:03:05;;;;;;;;;9.00;7.33;;;;;;;;5038236;28;45377;-71
2022/11/10 09:05:31;;;;;;;;;6.33;5.33;;;;;;;;5014540;28;45336;-69
2022/11/10 09:07:56;;;;;;;;;6.67;6.67;;;;;;;;5046624;28;45224;-69
2022/11/10 09:10:21;;;;;;;;;7.50;7.25;;;;;;;;5045204;28;45387;-69
2022/11/10 09:12:47;;;;;;;;;10.25;6.50;;;;;;;;5044741;28;45598;-70
2022/11/10 09:15:12;;;;;;;;;9.75;7.50;;;;;;;;5048110;28;45275;-70
2022/11/10 09:17:38;;;;;;;;;9.25;7.00;;;;;;;;5046252;28;45697;-70
2022/11/10 09:20:04;;;;;;;;;7.50;7.50;;;;;;;;5044703;28;46195;-69
2022/11/10 09:22:30;;;;;;;;;10.00;7.00;;;;;;;;5040076;28;45729;-70
2022/11/10 09:24:55;;;;;;;;;8.50;7.00;;;;;;;;5045066;28;45611;-69
2022/11/10 09:27:20;;;;;;;;;7.25;5.75;;;;;;;;5020003;28;47513;-70
2022/11/10 09:29:45;;;;;;;;;7.00;5.25;;;;;;;;5040308;28;45742;-71
2022/11/10 09:32:10;;;;;;;;;9.00;5.00;;;;;;;;5038038;28;45357;-70
2022/11/10 09:34:36;;;;;;;;;11.75;5.25;;;;;;;;5047976;28;45772;-69
2022/11/10 09:37:01;;;;;;;;;7.00;7.00;;;;;;;;5043903;28;46252;-71
2022/11/10 09:39:27;;;;;;;;;5.75;4.75;;;;;;;;5021331;28;45423;-69
2022/11/10 09:41:52;;;;;;;;;6.50;6.00;;;;;;;;5045650;28;45351;-72
2022/11/10 09:44:17;;;;;;;;;7.00;5.50;;;;;;;;5175754;22;45802;-75
2022/11/10 09:46:46;;;;;;;;;6.00;5.50;;;;;;;;5051432;28;45322;-73
2022/11/10 09:49:27;;;;;;;;;4.75;4.75;;;;;;;;5014788;28;45453;-71
2022/11/10 09:51:53;;;;;;;;;2.00;2.00;;;;;;;;5037478;28;45350;-70
2022/11/10 09:54:33;;;;;;;;;4.00;4.00;;;;;;;;5051759;27;45312;-74
2022/11/10 09:57:01;;;;;;;;;8.00;7.00;;;;;;;;5046635;28;45923;-75
2022/11/10 09:59:33;;;;;;;;;4.50;2.00;;;;;;;;5044817;28;45485;-72
2022/11/10 10:02:16;;;;;;;;;6.25;4.00;;;;;;;;5039459;28;45814;-73
2022/11/10 10:05:00;;;;;;;;;4.25;2.50;;;;;;;;5058756;28;46172;-74
2022/11/10 10:07:30;;;;;;;;;6.25;4.50;;;;;;;;5041064;28;46069;-75
2022/11/10 10:10:09;;;;;;;;;6.25;5.00;;;;;;;;5046110;28;45747;-74
2022/11/10 10:12:50;;;;;;;;;4.00;4.00;;;;;;;;5048849;28;45666;-75
2022/11/10 10:15:21;;;;;;;;;6.75;2.75;;;;;;;;5039492;28;45963;-75
2022/11/10 10:17:46;;;;;;;;;1.25;1.25;;;;;;;;5051283;28;45796;-69
2022/11/10 10:20:17;;;;;;;;;4.75;3.00;;;;;;;;5060455;28;45405;-69
2022/11/10 10:22:54;;;;;;;;;4.00;4.00;;;;;;;;5049958;28;45721;-70
2022/11/10 10:25:21;;;;;;;;;4.50;3.25;;;;;;;;5053320;28;45547;-72
2022/11/10 10:27:49;;;;;;;;;12.25;11.00;;;;;;;;5053530;28;46166;-74
2022/11/10 10:30:17;;;;;;;;;13.00;11.50;;;;;;;;5052527;28;45487;-71
2022/11/10 10:32:42;;;;;;;;;22.00;15.00;;;;;;;;5035901;28;45626;-72
2022/11/10 10:35:11;;;;;;;;;17.33;15.00;;;;;;;;5047767;28;45611;-71
2022/11/10 10:37:44;;;;;;;;;17.25;13.00;;;;;;;;5050578;28;46367;-72
2022/11/10 10:40:14;;;;;;;;;4.50;3.25;;;;;;;;5036865;28;45842;-70
2022/11/10 10:42:40;;;;;;;;;12.67;9.00;;;;;;;;5047968;28;45592;-71
2022/11/10 10:45:20;;;;;;;;;15.00;14.00;;;;;;;;5041850;28;45737;-71
2022/11/10 10:47:48;;;;;;;;;15.00;12.33;;;;;;;;5048167;28;45628;-71
2022/11/10 10:50:22;;;;;;;;;15.33;13.00;;;;;;;;5028018;28;45471;-70
2022/11/10 10:53:06;;;;;;;;;17.67;15.00;;;;;;;;5046105;28;45547;-69
2022/11/10 10:55:32;;;;;;;;;19.00;14.33;;;;;;;;5045649;28;45407;-71
2022/11/10 10:57:59;;;;;;;;;17.00;11.33;;;;;;;;5047200;28;45800;-74
2022/11/10 11:00:24;;;;;;;;;20.00;17.00;;;;;;;;5030036;28;45758;-72
2022/11/10 11:03:10;;;;;;;;;17.00;13.33;;;;;;;;5046368;28;45775;-71
2022/11/10 11:05:35;;;;;;;;;17.00;15.67;;;;;;;;5046305;28;45489;-71
2022/11/10 11:08:02;;;;;;;;;20.67;16.33;;;;;;;;5050161;28;45495;-72
2022/11/10 11:10:32;;;;;;;;;22.67;18.00;;;;;;;;5025098;28;45874;-75
2022/11/10 11:13:16;;;;;;;;;15.67;13.33;;;;;;;;5043277;28;46004;-75
2022/11/10 11:15:54;;;;;;;;;19.33;15.00;;;;;;;;5037486;28;45492;-76
2022/11/10 11:18:20;;;;;;;;;19.00;17.33;;;;;;;;5041352;28;46161;-75
2022/11/10 11:21:06;;;;;;;;;11.00;8.67;;;;;;;;5043601;28;45726;-74
2022/11/10 11:23:31;;;;;;;;;18.33;13.33;;;;;;;;5043035;28;45980;-76
2022/11/10 11:26:00;;;;;;;;;15.00;12.33;;;;;;;;5041902;28;45361;-75
2022/11/10 11:28:35;;;;;;;;;13.33;11.67;;;;;;;;5047041;28;46841;-75
2022/11/10 11:31:06;;;;;;;;;9.00;9.00;;;;;;;;5040542;28;45533;-75
2022/11/10 11:33:37;;;;;;;;;17.33;13.33;;;;;;;;5039756;28;45409;-76
2022/11/10 11:36:21;;;;;;;;;12.67;11.33;;;;;;;;5040256;28;46649;-76
2022/11/10 11:39:02;;;;;;;;;14.00;12.00;;;;;;;;5047070;28;46315;-76
2022/11/10 11:41:37;;;;;;;;;15.33;10.33;;;;;;;;5046885;28;45359;-75
2022/11/10 11:44:02;;;;;;;;;12.33;11.00;;;;;;;;5045675;28;45362;-73
2022/11/10 11:46:43;;;;;;;;;48.33;41.00;;;;;;;;5029928;28;45670;-79
2022/11/10 11:49:27;;;;;;;;;48.67;37.00;;;;;;;;5048813;28;46804;-73
2022/11/10 11:51:52;;;;;;;;;25.67;16.00;;;;;;;;5051952;28;46003;-78
2022/11/10 11:54:23;;;;;;;;;17.67;15.33;;;;;;;;5044055;28;45726;-79
2022/11/10 11:56:49;;;;;;;;;24.33;20.67;;;;;;;;5053761;28;45538;-71
2022/11/10 11:59:27;;;;;;;;;17.33;16.00;;;;;;;;5046562;28;46737;-72
2022/11/10 12:01:55;;;;;;;;;18.67;17.67;;;;;;;;5048177;28;45388;-72
2022/11/10 12:04:29;;;;;;;;;18.33;15.67;;;;;;;;5050034;28;45798;-70
2022/11/10 12:07:08;;;;;;;;;14.33;11.33;;;;;;;;5041365;28;45550;-73
2022/11/10 12:09:36;;;;;;;;;16.33;15.00;;;;;;;;5042855;28;45518;-71
2022/11/10 12:12:13;;;;;;;;;18.33;11.67;;;;;;;;5040702;28;45913;-69
2022/11/10 12:14:38;;;;;;;;;19.00;14.33;;;;;;;;5050317;28;45771;-71
2022/11/10 12:17:06;;;;;;;;;17.67;14.33;;;;;;;;5050326;28;45413;-70
2022/11/10 12:19:57;;;;;;;;;13.00;12.00;;;;;;;;5046618;28;45819;-72
2022/11/10 12:22:22;;;;;;;;;12.00;10.33;;;;;;;;5035238;28;45512;-71
2022/11/10 12:25:08;;;;;;;;;16.00;16.00;;;;;;;;5043074;28;45568;-70
2022/11/10 12:27:39;;;;;;;;;15.67;12.67;;;;;;;;5019360;28;45959;-69
2022/11/10 12:30:08;;;;;;;;;17.00;13.67;;;;;;;;5043405;28;46241;-71
2022/11/10 12:32:41;;;;;;;;;14.67;11.00;;;;;;;;5035163;28;45319;-71
2022/11/10 12:35:13;;;;;;;;;7.33;5.67;;;;;;;;5051165;28;45998;-70
2022/11/10 12:37:41;;;;;;;;;14.33;9.33;;;;;;;;5045103;28;45640;-71
2022/11/10 12:40:18;;;;;;;;;11.33;10.33;;;;;;;;5032588;28;45776;-69
2022/11/10 12:42:45;;;;;;;;;10.33;6.00;;;;;;;;5030340;28;45750;-70
2022/11/10 12:45:22;;;;;;;;;6.00;4.33;;;;;;;;5050666;28;45701;-69
2022/11/10 12:47:48;;;;;;;;;5.00;3.00;;;;;;;;5045338;28;45585;-69
2022/11/10 12:50:13;;;;;;;;;3.00;3.00;;;;;;;;5034749;28;45970;-71
2022/11/10 12:52:42;;;;;;;;;4.00;3.33;;;;;;;;5048041;28;45409;-71
2022/11/10 12:55:11;;;;;;;;;2.33;1.00;;;;;;;;5016113;28;45726;-71
2022/11/10 12:57:36;;;;;;;;;3.00;2.00;;;;;;;;5025609;28;45689;-71
2022/11/10 13:00:02;;;;;;;;;5.33;3.33;;;;;;;;5029702;28;45315;-70
2022/11/10 13:02:27;;;;;;;;;4.00;3.00;;;;;;;;5031557;28;45329;-71
2022/11/10 13:05:10;;;;;;;;;2.33;2.33;;;;;;;;5031785;28;45944;-74
2022/11/10 13:07:36;;;;;;;;;3.00;3.00;;;;;;;;5032123;28;46169;-72
2022/11/10 13:10:33;;;;;;;;;4.33;2.67;;;;;;;;5010660;28;48283;-72
2022/11/10 13:12:59;;;;;;;;;5.00;4.00;;;;;;;;5005586;28;45856;-70
2022/11/10 13:15:41;;;;;;;;;5.00;3.00;;;;;;;;5014328;28;45755;-70
2022/11/10 13:18:10;;;;;;;;;4.67;4.00;;;;;;;;5031432;28;45610;-69
2022/11/10 13:20:45;;;;;;;;;9.00;3.00;;;;;;;;5031319;28;45555;-70
2022/11/10 13:23:20;;;;;;;;;5.67;4.00;;;;;;;;5034340;28;45628;-69
2022/11/10 13:25:50;;;;;;;;;4.33;4.33;;;;;;;;5039769;28;46036;-70
2022/11/10 13:28:35;;;;;;;;;3.00;3.00;;;;;;;;5030419;28;45861;-70
2022/11/10 13:31:21;;;;;;;;;6.00;4.67;;;;;;;;5030691;28;46868;-70
2022/11/10 13:34:03;;;;;;;;;5.33;4.33;;;;;;;;5031589;28;45737;-70
2022/11/10 13:36:35;;;;;;;;;6.33;5.00;;;;;;;;5034049;28;46134;-69
2022/11/10 13:39:15;;;;;;;;;8.33;7.33;;;;;;;;5035034;28;45866;-69
2022/11/10 13:41:47;;;;;;;;;6.00;5.00;;;;;;;;5028242;28;45448;-69
2022/11/10 13:44:31;;;;;;;;;8.67;7.67;;;;;;;;5028490;28;45545;-69
2022/11/10 13:46:59;;;;;;;;;5.00;5.00;;;;;;;;5016983;28;45527;-70
2022/11/10 13:49:27;;;;;;;;;8.67;6.33;;;;;;;;5035014;28;45377;-70
2022/11/10 13:51:57;;;;;;;;;10.67;6.67;;;;;;;;5034488;28;46150;-69
2022/11/10 13:54:41;;;;;;;;;10.33;6.67;;;;;;;;5034118;28;45764;-68
2022/11/10 13:57:06;;;;;;;;;8.00;7.00;;;;;;;;5017206;28;45464;-70
2022/11/10 13:59:41;;;;;;;;;6.67;6.67;;;;;;;;5034360;28;45547;-68
2022/11/10 14:02:25;;;;;;;;;11.67;8.00;;;;;;;;5016638;28;46276;-70
2022/11/10 14:04:51;;;;;;;;;8.33;7.00;;;;;;;;5033136;28;46653;-70
2022/11/10 14:07:20;;;;;;;;;7.67;7.33;;;;;;;;5031956;28;45907;-69
2022/11/10 14:09:49;;;;;;;;;11.33;6.67;;;;;;;;5034576;28;45692;-69
2022/11/10 14:12:20;;;;;;;;;14.67;9.00;;;;;;;;5045744;28;46025;-70
2022/11/10 14:15:12;;;;;;;;;9.33;7.00;;;;;;;;5017186;28;45408;-72
2022/11/10 14:17:43;;;;;;;;;8.67;8.33;;;;;;;;5037936;28;45519;-71
2022/11/10 14:20:22;;;;;;;;;13.00;10.33;;;;;;;;5035788;28;45662;-72
2022/11/10 14:22:48;;;;;;;;;10.33;8.00;;;;;;;;5032812;28;46262;-69
2022/11/10 14:25:17;;;;;;;;;9.67;7.67;;;;;;;;5033635;28;45704;-70
2022/11/10 14:27:43;;;;;;;;;9.00;9.00;;;;;;;;5017505;28;45504;-69
2022/11/10 14:30:20;;;;;;;;;8.67;8.67;;;;;;;;5017040;28;46317;-69
2022/11/10 14:33:02;;;;;;;;;9.67;9.00;;;;;;;;5005676;28;46999;-71
2022/11/10 14:35:48;;;;;;;;;9.67;9.67;;;;;;;;5032187;28;45520;-71
2022/11/10 14:38:16;;;;;;;;;11.00;8.00;;;;;;;;5028024;28;45950;-69
2022/11/10 14:40:41;;;;;;;;;9.67;7.00;;;;;;;;5036069;28;45398;-69
2022/11/10 14:43:23;;;;;;;;;13.33;9.00;;;;;;;;5033500;28;45393;-71
2022/11/10 14:45:54;;;;;;;;;11.67;10.67;;;;;;;;5033951;28;45690;-70
2022/11/10 14:48:22;;;;;;;;;7.00;5.00;;;;;;;;5028569;28;45692;-70
2022/11/10 14:50:48;;;;;;;;;3.00;2.00;;;;;;;;5032674;28;45532;-69
2022/11/10 14:53:23;;;;;;;;;8.67;8.33;;;;;;;;5039890;28;46561;-69